createdAt,value
2023-05-11T00:01:54.958Z,5.65
2023-05-11T00:09:13.462Z,5.18
2023-05-11T00:16:33.290Z,4.63
2023-05-11T00:23:51.711Z,5.50
2023-05-11T00:31:10.016Z,5.60
2023-05-11T00:38:29.821Z,5.78
2023-05-11T00:45:49.862Z,5.25
2023-05-11T00:53:08.136Z,5.38
2023-05-11T01:00:27.947Z,4.32
2023-05-11T01:07:52.958Z,5.10
2023-05-11T01:15:13.776Z,5.88
2023-05-11T01:22:52.758Z,5.90
2023-05-11T01:30:34.215Z,5.90
2023-05-11T01:37:55.771Z,5.50
2023-05-11T01:45:14.906Z,5.25
2023-05-11T01:52:34.837Z,5.32
2023-05-11T01:59:53.742Z,5.07
2023-05-11T02:07:13.470Z,4.28
2023-05-11T02:14:34.356Z,5.45
2023-05-11T02:21:54.707Z,4.85
2023-05-11T02:29:13.239Z,4.95
2023-05-11T02:36:33.972Z,4.70
2023-05-11T02:43:53.200Z,5.45
2023-05-11T02:51:12.748Z,6.38
2023-05-11T02:58:38.013Z,5.40
2023-05-11T03:06:10.258Z,5.20
2023-05-11T03:13:29.184Z,5.03
2023-05-11T03:20:52.021Z,4.97
2023-05-11T03:28:10.834Z,5.82
2023-05-11T03:35:29.744Z,5.00
2023-05-11T03:42:49.734Z,4.78
2023-05-11T03:50:09.149Z,4.55
2023-05-11T03:57:28.024Z,4.68
2023-05-11T04:04:48.032Z,4.78
2023-05-11T04:12:06.729Z,4.93
2023-05-11T04:19:25.930Z,4.72
2023-05-11T04:26:45.585Z,5.40
2023-05-11T04:34:04.055Z,4.97
2023-05-11T04:41:22.592Z,4.60
2023-05-11T04:48:43.932Z,5.80
2023-05-11T04:56:07.454Z,4.97
2023-05-11T05:03:26.945Z,4.88
2023-05-11T05:10:50.319Z,4.78
2023-05-11T05:18:09.113Z,6.05
2023-05-11T05:25:27.336Z,5.40
2023-05-11T05:32:48.658Z,5.43
2023-05-11T05:40:08.492Z,5.47
2023-05-11T05:47:32.201Z,5.70
2023-05-11T05:54:51.875Z,5.70
2023-05-11T06:02:11.940Z,5.43
2023-05-11T06:09:30.607Z,5.78
2023-05-11T06:16:50.441Z,5.18
2023-05-11T06:24:09.022Z,5.63
2023-05-11T06:31:29.505Z,5.55
2023-05-11T06:38:49.482Z,4.95
2023-05-11T06:46:07.770Z,5.05
2023-05-11T06:53:26.206Z,5.28
2023-05-11T07:00:45.805Z,5.40
2023-05-11T07:08:04.903Z,5.28
2023-05-11T07:15:23.120Z,5.60
2023-05-11T07:22:42.974Z,5.32
2023-05-11T07:30:01.304Z,5.57
2023-05-11T07:37:19.898Z,5.05
2023-05-11T07:44:39.746Z,6.03
2023-05-11T07:51:58.358Z,5.25
2023-05-11T07:59:17.166Z,5.53
2023-05-11T08:06:37.627Z,6.25
2023-05-11T08:13:55.759Z,6.28
2023-05-11T08:21:15.394Z,5.78
2023-05-11T08:28:34.850Z,5.70
2023-05-11T08:35:53.032Z,5.18
2023-05-11T08:43:11.442Z,5.20
2023-05-11T08:50:30.987Z,5.35
2023-05-11T08:57:49.648Z,4.47
2023-05-11T09:05:08.856Z,4.15
2023-05-11T09:12:28.640Z,3.42
2023-05-11T09:20:01.532Z,3.17
2023-05-11T09:27:21.647Z,3.17
2023-05-11T09:34:43.085Z,3.38
2023-05-11T09:42:15.010Z,3.50
2023-05-11T09:49:33.415Z,2.97
2023-05-11T09:56:54.452Z,3.05
2023-05-11T10:04:22.807Z,2.47
2023-05-11T10:11:45.173Z,2.20
2023-05-11T10:19:05.222Z,2.43
2023-05-11T10:26:23.399Z,2.40
2023-05-11T10:33:43.148Z,2.10
2023-05-11T10:41:12.091Z,11.10
2023-05-11T10:49:04.177Z,2.08
2023-05-11T10:56:36.006Z,2.23
2023-05-11T11:03:59.572Z,1.80
2023-05-11T11:11:32.060Z,2.50
2023-05-11T11:18:50.248Z,2.42
2023-05-11T11:26:10.099Z,2.63
2023-05-11T11:33:35.765Z,2.20
2023-05-11T11:40:53.925Z,2.28
2023-05-11T11:48:16.419Z,2.50
2023-05-11T11:55:50.196Z,2.60
2023-05-11T12:03:08.937Z,5.78
2023-05-11T12:10:27.029Z,3.28
2023-05-11T12:17:46.679Z,3.72
2023-05-11T12:25:06.707Z,3.00
2023-05-11T12:32:29.227Z,2.88
2023-05-11T12:39:55.286Z,2.78
2023-05-11T12:47:13.483Z,3.00
2023-05-11T12:54:35.881Z,2.78
2023-05-11T13:01:55.710Z,3.27
2023-05-11T13:09:23.192Z,2.30
2023-05-11T13:16:41.394Z,2.58
2023-05-11T13:24:01.571Z,2.60
2023-05-11T13:31:20.304Z,2.78
2023-05-11T13:38:38.465Z,2.92
2023-05-11T13:45:57.972Z,2.55
2023-05-11T13:53:16.609Z,3.13
2023-05-11T14:00:35.360Z,2.80
2023-05-11T14:07:55.008Z,2.72
2023-05-11T14:15:13.470Z,2.80
2023-05-11T14:22:31.531Z,2.55
2023-05-11T14:29:51.578Z,2.80
2023-05-11T14:37:09.714Z,2.83
2023-05-11T14:44:28.266Z,3.08
2023-05-11T14:51:47.820Z,2.63
2023-05-11T14:59:05.988Z,3.03
2023-05-11T15:06:24.140Z,3.22
2023-05-11T15:13:43.603Z,3.40
2023-05-11T15:21:03.384Z,3.58
2023-05-11T15:28:21.745Z,2.50
2023-05-11T15:35:41.599Z,3.17
2023-05-11T15:43:00.286Z,2.80
2023-05-11T15:50:18.531Z,2.55
2023-05-11T15:57:38.309Z,2.58
2023-05-11T16:04:56.505Z,2.63
2023-05-11T16:12:14.682Z,2.83
2023-05-11T16:19:34.147Z,2.53
2023-05-11T16:26:52.397Z,2.70
2023-05-11T16:34:10.484Z,2.90
2023-05-11T16:41:30.223Z,3.05
2023-05-11T16:48:48.477Z,2.80
2023-05-11T16:56:07.653Z,2.80
2023-05-11T17:03:27.391Z,2.90
2023-05-11T17:10:46.384Z,2.72
2023-05-11T17:18:05.364Z,2.67
2023-05-11T17:25:25.016Z,3.28
2023-05-11T17:32:43.553Z,3.03
2023-05-11T17:40:02.325Z,2.92
2023-05-11T17:47:22.472Z,3.20
2023-05-11T17:54:40.718Z,3.03
2023-05-11T18:01:59.430Z,3.10
2023-05-11T18:09:19.867Z,3.10
2023-05-11T18:16:38.417Z,2.70
2023-05-11T18:23:56.752Z,2.92
2023-05-11T18:31:19.227Z,3.08
2023-05-11T18:38:37.578Z,3.17
2023-05-11T18:45:55.862Z,3.08
2023-05-11T18:53:15.632Z,3.10
2023-05-11T19:00:37.712Z,3.10
2023-05-11T19:07:55.886Z,4.28
2023-05-11T19:15:15.820Z,4.30
2023-05-11T19:22:34.114Z,4.13
2023-05-11T19:29:52.278Z,3.70
2023-05-11T19:37:12.491Z,4.97
2023-05-11T19:44:33.088Z,5.70
2023-05-11T19:51:51.389Z,4.97
2023-05-11T19:59:10.981Z,5.43
2023-05-11T20:06:29.189Z,6.25
2023-05-11T20:13:47.967Z,4.53
2023-05-11T20:21:07.946Z,5.70
2023-05-11T20:28:27.497Z,4.70
2023-05-11T20:35:45.738Z,4.03
2023-05-11T20:43:05.503Z,3.78
2023-05-11T20:50:24.747Z,4.00
2023-05-11T20:57:42.929Z,5.07
2023-05-11T21:05:02.826Z,5.43
2023-05-11T21:12:21.114Z,4.20
2023-05-11T21:19:39.269Z,4.93
2023-05-11T21:26:59.665Z,4.55
2023-05-11T21:34:18.603Z,4.35
2023-05-11T21:41:36.815Z,4.90
2023-05-11T21:48:56.301Z,5.03
2023-05-11T21:56:15.780Z,3.83
2023-05-11T22:03:34.495Z,3.63
2023-05-11T22:10:54.258Z,4.18
2023-05-11T22:18:12.525Z,3.50
2023-05-11T22:25:32.133Z,3.60
2023-05-11T22:32:51.683Z,3.97
2023-05-11T22:40:10.768Z,4.28
2023-05-11T22:47:29.668Z,3.88
2023-05-11T22:54:49.444Z,4.22
2023-05-11T23:02:07.703Z,4.47
2023-05-11T23:09:26.208Z,4.47
2023-05-11T23:16:45.964Z,4.07
2023-05-11T23:24:05.002Z,4.70
2023-05-11T23:31:23.274Z,4.95
2023-05-11T23:38:42.957Z,4.78
2023-05-11T23:46:02.548Z,4.78
2023-05-11T23:53:20.815Z,4.72
